createdAt,value
2022-10-23T00:02:23.146Z,8.64
2022-10-23T00:07:24.546Z,8.57
2022-10-23T00:12:25.747Z,8.55
2022-10-23T00:17:27.510Z,8.47
2022-10-23T00:22:29.611Z,8.41
2022-10-23T00:27:31.194Z,8.37
2022-10-23T00:32:33.186Z,8.32
2022-10-23T00:37:34.905Z,8.22
2022-10-23T00:43:24.555Z,8.34
2022-10-23T00:47:39.093Z,8.14
2022-10-23T00:52:40.729Z,8.03
2022-10-23T00:57:42.408Z,8
2022-10-23T01:02:43.907Z,7.9
2022-10-23T01:07:45.722Z,7.86
2022-10-23T01:13:35.394Z,7.97
2022-10-23T01:19:25.077Z,7.98
2022-10-23T01:22:51.074Z,7.78
2022-10-23T01:27:52.995Z,7.62
2022-10-23T01:32:54.916Z,7.58
2022-10-23T01:37:56.928Z,7.48
2022-10-23T01:42:58.665Z,7.44
2022-10-23T01:48:00.371Z,7.34
2022-10-23T01:53:50.041Z,7.47
2022-10-23T01:58:03.489Z,7.32
2022-10-23T02:03:05.473Z,7.23
2022-10-23T02:08:06.739Z,7.13
2022-10-23T02:13:08.029Z,7.08
2022-10-23T02:18:09.507Z,7.03
2022-10-23T02:23:11.321Z,6.95
2022-10-23T02:28:12.982Z,6.89
2022-10-23T02:33:14.155Z,6.86
2022-10-23T02:38:15.860Z,6.84
2022-10-23T02:43:17.649Z,6.84
2022-10-23T02:48:19.126Z,6.84
2022-10-23T02:53:20.633Z,6.87
2022-10-23T02:58:21.932Z,6.85
2022-10-23T03:03:23.884Z,6.85
2022-10-23T03:08:26.050Z,6.8
2022-10-23T03:13:27.994Z,6.81
2022-10-23T03:18:29.442Z,6.77
2022-10-23T03:23:31.489Z,6.79
2022-10-23T03:28:33.463Z,6.74
2022-10-23T03:33:34.598Z,6.75
2022-10-23T03:38:36.278Z,6.72
2022-10-23T03:43:38.177Z,6.73
2022-10-23T03:48:39.338Z,6.77
2022-10-23T03:53:40.802Z,6.79
2022-10-23T03:58:42.672Z,6.75
2022-10-23T04:03:44.327Z,6.75
2022-10-23T04:08:45.637Z,6.7
2022-10-23T04:13:46.866Z,6.71
2022-10-23T04:18:48.504Z,6.68
2022-10-23T04:23:50.453Z,6.67
2022-10-23T04:28:51.913Z,6.65
2022-10-23T04:33:53.465Z,6.68
2022-10-23T04:38:55.304Z,6.66
2022-10-23T04:43:57.504Z,6.7
2022-10-23T04:48:59.485Z,6.69
2022-10-23T04:55:05.538Z,6.88
2022-10-23T04:59:22.176Z,6.81
2022-10-23T05:04:23.478Z,6.76
2022-10-23T05:09:25.033Z,6.75
2022-10-23T05:14:26.393Z,6.82
2022-10-23T05:19:28.534Z,6.87
2022-10-23T05:24:30.339Z,6.88
2022-10-23T05:29:31.917Z,6.93
2022-10-23T05:34:33.936Z,6.94
2022-10-23T05:39:36.030Z,6.98
2022-10-23T05:44:37.402Z,6.87
2022-10-23T05:49:38.570Z,6.84
2022-10-23T05:54:40.598Z,6.88
2022-10-23T05:59:42.751Z,6.84
2022-10-23T06:04:44.871Z,6.81
2022-10-23T06:09:46.681Z,6.81
2022-10-23T06:14:47.909Z,6.73
2022-10-23T06:19:49.394Z,6.77
2022-10-23T06:24:51.054Z,6.76
2022-10-23T06:29:52.669Z,6.77
2022-10-23T06:34:54.220Z,6.79
2022-10-23T06:40:43.848Z,6.97
2022-10-23T06:44:59.099Z,6.94
2022-10-23T06:49:59.533Z,6.92
2022-10-23T06:55:01.503Z,6.96
2022-10-23T07:00:03.190Z,7.04
2022-10-23T07:05:07.627Z,7.14
2022-10-23T07:10:06.661Z,7.26
2022-10-23T07:15:56.266Z,7.57
2022-10-23T07:20:09.806Z,7.69
2022-10-23T07:25:11.973Z,7.86
2022-10-23T07:30:13.284Z,8.04
2022-10-23T07:40:17.575Z,8.43
2022-10-23T07:45:19.545Z,8.64
2022-10-23T07:50:20.873Z,8.85
2022-10-23T07:55:23.052Z,9.1
2022-10-23T08:05:26.923Z,9.75
2022-10-23T08:10:28.946Z,10.01
2022-10-23T08:15:30.706Z,10.35
2022-10-23T08:20:32.437Z,10.71
2022-10-23T08:25:34.251Z,10.93
2022-10-23T08:30:36.299Z,11.07
2022-10-23T08:35:38.248Z,11.33
2022-10-23T08:40:39.891Z,11.5
2022-10-23T08:45:41.293Z,11.76
2022-10-23T08:50:43.504Z,11.99
2022-10-23T08:55:44.676Z,12.26
2022-10-23T09:00:46.844Z,12.44
2022-10-23T09:05:48.871Z,12.65
2022-10-23T09:10:51.354Z,12.93
2022-10-23T09:15:51.745Z,13.21
2022-10-23T09:20:53.434Z,13.48
2022-10-23T09:25:55.557Z,13.86
2022-10-23T09:30:57.121Z,14.21
2022-10-23T09:35:58.559Z,14.52
2022-10-23T09:40:59.873Z,14.88
2022-10-23T09:46:01.455Z,15.02
2022-10-23T09:51:03.525Z,15.27
2022-10-23T09:56:05.306Z,15.57
2022-10-23T10:01:06.997Z,15.88
2022-10-23T10:06:08.944Z,16.12
2022-10-23T10:11:10.504Z,16.29
2022-10-23T10:16:11.935Z,16.66
2022-10-23T10:21:13.281Z,16.93
2022-10-23T10:26:14.697Z,17.14
2022-10-23T10:31:16.627Z,17.28
2022-10-23T10:36:17.987Z,17.45
2022-10-23T10:42:07.557Z,17.7
2022-10-23T10:46:20.575Z,17.71
2022-10-23T10:51:22.031Z,17.83
2022-10-23T10:57:11.649Z,18.06
2022-10-23T11:01:25.806Z,17.91
2022-10-23T11:06:27.705Z,18
2022-10-23T11:11:29.496Z,17.95
2022-10-23T11:16:31.080Z,18.04
2022-10-23T11:21:32.891Z,17.94
2022-10-23T11:27:22.466Z,17.93
2022-10-23T12:16:51.164Z,18.62
2022-10-23T12:26:54.643Z,18.62
2022-10-23T12:41:59.627Z,18.37
2022-10-23T12:52:50.687Z,18.45
2022-10-23T12:57:04.700Z,18.36
2022-10-23T13:02:06.644Z,18.35
2022-10-23T13:07:08.286Z,18.4
2022-10-23T13:12:09.814Z,18.45
2022-10-23T13:17:11.628Z,18.46
2022-10-23T13:22:13.356Z,18.33
2022-10-23T13:27:15.264Z,18.27
2022-10-23T13:32:17.237Z,18.37
2022-10-23T13:37:19.187Z,18.37
2022-10-23T13:43:08.849Z,18.46
2022-10-23T13:47:22.801Z,18.33
2022-10-23T13:52:24.221Z,18.28
2022-10-23T13:57:26.357Z,18.24
2022-10-23T14:02:28.652Z,18.18
2022-10-23T14:07:29.941Z,18.15
2022-10-23T14:12:31.909Z,18.1
2022-10-23T14:17:33.790Z,18.06
2022-10-23T14:22:34.993Z,17.96
2022-10-23T14:27:36.231Z,17.92
2022-10-23T14:32:37.903Z,17.84
2022-10-23T14:37:39.137Z,17.79
2022-10-23T14:42:40.711Z,17.77
2022-10-23T14:47:42.204Z,17.76
2022-10-23T14:52:43.631Z,17.73
2022-10-23T14:57:45.441Z,17.67
2022-10-23T15:02:46.579Z,17.62
2022-10-23T15:07:48.432Z,17.45
2022-10-23T15:12:55.300Z,17.43
2022-10-23T15:17:52.031Z,17.33
2022-10-23T15:23:41.657Z,17.45
2022-10-23T15:27:55.310Z,17.21
2022-10-23T15:32:57.367Z,17.03
2022-10-23T15:37:58.617Z,16.9
2022-10-23T15:43:00.426Z,16.79
2022-10-23T15:48:01.780Z,16.54
2022-10-23T15:53:03.189Z,16.42
2022-10-23T15:58:52.813Z,16.52
2022-10-23T16:03:06.676Z,16.29
2022-10-23T16:08:08.317Z,16.1
2022-10-23T16:13:57.970Z,16.07
2022-10-23T16:18:11.721Z,15.83
2022-10-23T16:23:13.140Z,15.71
2022-10-23T16:28:14.341Z,15.51
2022-10-23T16:33:16.533Z,15.39
2022-10-23T16:38:17.969Z,15.34
2022-10-23T16:43:19.887Z,15.3
2022-10-23T16:48:21.400Z,15.09
2022-10-23T16:53:23.276Z,15.04
2022-10-23T16:58:25.324Z,14.96
2022-10-23T17:03:26.676Z,14.84
2022-10-23T17:08:28.624Z,14.75
2022-10-23T17:13:30.519Z,14.67
2022-10-23T17:18:32.466Z,14.61
2022-10-23T17:23:34.270Z,14.5
2022-10-23T17:28:36.385Z,14.49
2022-10-23T17:33:38.049Z,14.43
2022-10-23T17:38:39.700Z,14.35
2022-10-23T17:43:41.761Z,14.31
2022-10-23T17:48:43.210Z,14.25
2022-10-23T17:53:44.872Z,14.12
2022-10-23T17:58:46.477Z,14.13
2022-10-23T18:03:53.151Z,13.99
2022-10-23T18:08:49.346Z,14.01
2022-10-23T18:13:51.185Z,13.96
2022-10-23T18:18:53.240Z,13.93
2022-10-23T18:23:55.110Z,13.83
2022-10-23T18:28:56.787Z,13.87
2022-10-23T18:33:58.749Z,13.86
2022-10-23T18:39:11.079Z,13.82
2022-10-23T18:44:02.672Z,13.76
2022-10-23T18:49:14.860Z,13.58
2022-10-23T18:54:05.864Z,13.59
2022-10-23T18:59:19.096Z,13.5
2022-10-23T19:04:09.499Z,13.45
2022-10-23T19:09:21.164Z,13.37
2022-10-23T19:14:12.393Z,13.36
2022-10-23T19:19:23.635Z,13.25
2022-10-23T19:24:16.009Z,13.21
2022-10-23T19:29:27.635Z,13.09
2022-10-23T19:34:18.665Z,13.03
2022-10-23T19:39:31.993Z,12.9
2022-10-23T19:44:22.336Z,12.87
2022-10-23T19:49:24.596Z,12.81
2022-10-23T19:54:26.626Z,12.79
2022-10-23T19:59:38.824Z,12.73
2022-10-23T20:04:30.604Z,12.76
2022-10-23T20:09:31.972Z,12.72
2022-10-23T20:14:33.476Z,12.76
2022-10-23T20:19:46.375Z,12.73
2022-10-23T20:25:35.941Z,12.86
2022-10-23T20:29:38.959Z,12.79
2022-10-23T20:34:40.782Z,12.75
2022-10-23T20:39:42.832Z,12.75
2022-10-23T20:44:44.689Z,12.77
2022-10-23T20:49:46.183Z,12.78
2022-10-23T20:54:48.107Z,12.79
2022-10-23T21:00:37.740Z,12.96
2022-10-23T21:04:51.915Z,12.89
2022-10-23T21:09:53.891Z,12.9
2022-10-23T21:14:55.797Z,12.9
2022-10-23T21:19:57.615Z,12.92
2022-10-23T21:24:59.449Z,12.91
2022-10-23T21:30:01.145Z,12.88
2022-10-23T21:35:03.201Z,12.89
2022-10-23T21:35:12.775Z,12.9
2022-10-23T21:40:13.957Z,12.88
2022-10-23T21:45:15.924Z,12.85
2022-10-23T21:50:17.747Z,12.83
2022-10-23T21:55:19.044Z,12.79
2022-10-23T22:20:26.793Z,12.99
2022-10-23T22:25:28.771Z,12.97
2022-10-23T22:30:30.384Z,13.03
2022-10-23T22:35:32.397Z,13.1
2022-10-23T22:40:34.063Z,13.15
2022-10-23T22:45:45.691Z,13.18
2022-10-23T22:50:37.024Z,13.31
2022-10-23T22:55:38.287Z,13.41
2022-10-23T23:00:41.328Z,13.48
2022-10-23T23:10:42.788Z,13.65
2022-10-23T23:15:43.994Z,13.8
2022-10-23T23:20:46.079Z,13.85
2022-10-23T23:25:47.942Z,13.93
2022-10-23T23:30:49.605Z,13.94
2022-10-23T23:35:51.237Z,14.03
2022-10-23T23:40:52.628Z,14.15
2022-10-23T23:45:54.024Z,14.28
2022-10-23T23:50:55.231Z,14.29
